Portada
METAR-TAF:

METAR-TAF

Aeropuertos :

Touggourt, Argelia

latitud: 33-07N, longitud: 006-08E, altitud: 85 m

Observación

El informe se hizo hace 1 hora y 16 minutos, a las 15:00 UTC
Viento 6 kt del oeste-suroeste
Temperatura 16°C
Humedad 39%
Presión 1029 hPa
Visibilidad 10 km o más
sin nubes por debajo de 1500 m y sin presencia de cumulonimbus.

METAR: DAUK 171500Z 24006KT CAVOK 16/02 Q1029

Hora: 17:16 (16:16 UTC)

Pronóstico

El informe se hizo hace 2 horas y 16 minutos, a las 14:00 UTC
Pronóstico válido del 17 a las 15 UTC al 17 a las 24 UTC
Viento 5 kt del oeste-suroeste
Visibilidad 10 km o más
sin nubes por debajo de 1500 m y sin presencia de cumulonimbus.

TAF: DAUK 171400Z 1715/1724 25005KT CAVOK

Observaciones y pronósticos meteorológicos de más de 4000 aeropuertos (mensajes METAR y TAF).

Los puntos amarillos y rojos representan las estaciones disponibles.

Ponga el ratón en el punto deseado para ver el nombre de la estación.

Haga clic para ver las observaciones y los pronósticos meteorológicos.

Para cambiar el mapa : haga clic en los botones verdes con una cruz de color negro para hacer un zoom, en el botón verde con un guión para alejar o en las flechas verdes para mapas adyacentes.


METAR-TAF: